Flight Track Log - Related Links

Times and Time Zones

All times are in EDT time to prevent confusion due to time zone crossing. See the EZY5074 flight status page for this flight to view local times or setup timezone preferences in your user account.

Time Position Orientation Groundspeed Altitude Reporting Facility
EDT Latitude Longitude Course Direction KTS MPH feet Rate Location/Type
Wed 05:40:04 PM 51.0798 -0.5757 14° North 228 262 3,000  Level FlightAware ADS-B
Wed 05:40:07 PM 51.0839 -0.5740 34° Northeast 228 262 3,000 -286 Level FlightAware ADS-B
Wed 05:40:25 PM 51.0996 -0.5573 55° Northeast 230 265 2,900 -261 Descending FlightAware ADS-B
Wed 05:40:30 PM 51.1028 -0.5501 69° East 232 267 2,900 -500 Level FlightAware ADS-B
Wed 05:40:37 PM 51.1055 -0.5389 84° East 234 269 2,800 -400 Descending FlightAware ADS-B
Wed 05:41:00 PM 51.1081 -0.5000 78° East 222 255 2,700 -261 Descending FlightAware ADS-B
Wed 05:48:32 PM 51.4631 2.5476 261° West  Level Estimated
Wed 05:49:32 PM 51.4206 2.1404 260° West  Level Estimated
Wed 05:50:32 PM 51.3766 1.7340 260° West  Level Estimated
Wed 05:51:32 PM 51.3312 1.3283 260° West  Level Estimated
Wed 05:52:32 PM 51.2845 0.9235 259° West  Level Estimated
Wed 05:53:32 PM 51.2363 0.5196 259° West  Level Estimated
Wed 05:54:32 PM 51.1867 0.1164 259° West  Level Estimated
Wed 05:55:32 PM 51.1358 -0.2858 78° East  Level Estimated
Wed 05:56:32 PM 51.1867 0.1164 259° West  Level Estimated
Wed 05:57:32 PM 51.1358 -0.2858 78° East  Level Estimated
Wed 05:58:32 PM 51.1867 0.1164 259° West  Level Estimated
Wed 05:59:32 PM 51.1358 -0.2858 78° East  Level Estimated
Wed 06:00:32 PM 51.1867 0.1164 259° West  Level Estimated
Wed 06:01:32 PM 51.1358 -0.2858 78° East  Level Estimated
Wed 06:02:32 PM 51.1867 0.1164 259° West  Level Estimated
Wed 06:03:32 PM 51.1358 -0.2858 78° East  Level Estimated
Wed 06:04:32 PM 51.1867 0.1164 259° West  Level Estimated
Wed 06:05:32 PM 51.1358 -0.2858 78° East  Level Estimated
Wed 06:06:32 PM 51.1867 0.1164 259° West  Level Estimated
Wed 06:07:32 PM 51.1358 -0.2858 78° East  Level Estimated
Wed 06:08:32 PM 51.1867 0.1164 259° West  Level Estimated
Wed 06:09:32 PM 51.1358 -0.2858 78° East  Level Estimated
Wed 06:10:32 PM 51.1867 0.1164 259° West  Level Estimated
Wed 06:11:32 PM 51.1358 -0.2858 78° East  Level Estimated
Wed 06:12:32 PM 51.1867 0.1164 259° West  Level Estimated
Wed 06:13:32 PM 51.1358 -0.2858 78° East  Level Estimated
Wed 06:14:32 PM 51.1867 0.1164 259° West  Level Estimated
Wed 06:15:32 PM 51.1358 -0.2858 78° East  Level Estimated
Wed 06:16:32 PM 51.1867 0.1164 259° West  Level Estimated
Wed 06:17:32 PM 51.1358 -0.2858 78° East  Level Estimated
Wed 06:18:32 PM 51.1867 0.1164 259° West  Level Estimated
Wed 06:19:32 PM 51.1358 -0.2858 78° East  Level Estimated
Wed 06:20:32 PM 51.1867 0.1164 259° West  Level Estimated
Wed 06:21:32 PM 51.1358 -0.2858 78° East  Level Estimated
Wed 06:22:32 PM 51.1867 0.1164 259° West  Level Estimated
Wed 06:23:32 PM 51.1358 -0.2858 78° East  Level Estimated
Wed 06:24:32 PM 51.1867 0.1164 259° West  Level Estimated
Wed 06:25:32 PM 51.1358 -0.2858 78° East  Level Estimated
Wed 06:26:32 PM 51.1867 0.1164 259° West  Level Estimated
Wed 06:27:32 PM 51.1358 -0.2858 78° East  Level Estimated
Wed 06:28:32 PM 51.1867 0.1164 259° West  Level Estimated
Wed 06:29:32 PM 51.1358 -0.2858 78° East  Level Estimated
Wed 06:30:32 PM 51.1867 0.1164 259° West  Level Estimated
Wed 06:31:32 PM 51.1358 -0.2858 78° East  Level Estimated
Wed 06:32:32 PM 51.1867 0.1164 259° West  Level Estimated
Wed 06:33:32 PM 51.1358 -0.2858 78° East  Level Estimated
Wed 06:34:32 PM 51.1867 0.1164 259° West  Level Estimated
Wed 06:35:32 PM 51.1358 -0.2858 78° East  Level Estimated
Wed 06:36:32 PM 51.1867 0.1164 259° West  Level Estimated
Wed 06:37:32 PM 51.1358 -0.2858 78° East  Level Estimated
Wed 06:38:32 PM 51.1867 0.1164 259° West  Level Estimated
Wed 06:39:32 PM 51.1358 -0.2858 78° East  Level Estimated
Wed 06:40:32 PM 51.1867 0.1164 78° East  Level Estimated

Login

Don't have an account? Register now (free) for customized features, flight alerts, and more!